SEE JANE RUN HALF MARATHON OVERALL, WICHITA, KS

Search This Page:

 

PRINTABLE RESULTS
SEE JANE RUN

WICHITA, KANSAS

SEPTEMBER 14, 2013

HALF MARATHON RESULTS

Place Div/Tot Divage Bib Name Age Sex City State Time Pace
1 1/122 F3034 10016 AMY ARMSTRONG 34 F WICHITA KS 1:36:05.8 7:21
2 1/105 F3539 10548 LORNA SWAN 38 F CHICAGO IL 1:37:20.1 7:26
3 1/81 F2529 10018 JENNA ARTIS 25 F WICHITA KS 1:37:30.7 7:27
4 2/122 F3034 10504 KATIE SIEGRIST 33 F WICHITA KS 1:38:11.5 7:30
5 1/66 F4044 10359 BRENDA MESKER 40 F WICHITA KS 1:39:09.9 7:35
6 2/66 F4044 10635 AMY DRISKILL 40 F WICHITA KS 1:39:10.3 7:35
7 2/105 F3539 10354 EMILY MCVAY 36 F WICHTA KS 1:39:31.9 7:36
8 2/81 F2529 10335 SHANNA MATTHEWS 29 F BEL AIRE KS 1:39:56.6 7:38
9 3/66 F4044 10664 KIMBERLY GUDENKAUF 42 F OLATHE KS 1:40:04.1 7:39
10 3/122 F3034 10145 MELODY ELDER 33 F MCPHERSON KS 1:41:35.6 7:46
11 4/122 F3034 10519 BLANCA SORIA 32 F WICHITA KS 1:41:52.4 7:47
12 1/32 F5054 10647 REBECCA STEVEN 51 F WICHITA KS 1:43:25.7 7:54
13 3/81 F2529 10300 KACIE LAHA 26 F WICHITA KS 1:44:01.1 7:57
14 5/122 F3034 10195 JENNIFER GRABER 33 F KINGMAN KS 1:45:30.6 8:04
15 6/122 F3034 10068 CHRISTI BROWN 30 F WICHITA KS 1:46:17.1 8:07
16 3/105 F3539 10237 SHELLY HERRMANN 38 F ANDOVER KS 1:46:31.6 8:08
17 4/105 F3539 10310 HEATHER LEWIS 36 F BEL AIRE KS 1:46:53.6 8:10
18 4/81 F2529 10672 KATIE ADAMS 27 F WICHITA KS 1:47:19.6 8:12
19 5/105 F3539 10446 KELLY RANZ 36 F WICHITA KS 1:48:40.5 8:18
20 6/105 F3539 10465 AMY ROSS 38 F HALSTEAD KS 1:49:56.3 8:24
21 7/122 F3034 10021 AMBER CAMPIDILLI 31 F MINDEN IA 1:50:12.6 8:25
22 1/44 F4549 10329 VALARIE MARTIN 49 F TESCOTT KS 1:50:45.8 8:28
23 5/81 F2529 10384 MAYMEE MURPHY 26 F AUGUSTA KS 1:50:47.3 8:28
24 1/34 F2024 10437 BRITNEE POND 20 F PITTSBURG KS 1:51:30.3 8:31
25 8/122 F3034 10388 MELISSA NEISES 34 F WICHITA KS 1:51:57.8 8:33
26 2/34 F2024 10020 TAYLOR ASHWORTH 24 F WICHITA KS 1:52:42.1 8:37
27 4/66 F4044 10265 ANITA JAMES 43 F MCPHERSON KS 1:52:49.4 8:37
28 9/122 F3034 10634 KRISTIN ZERGER 33 F WICHITA KS 1:52:56.9 8:38
29 1/3 F6064 10249 BARBARA HOLZMAN 61 F WICHITA KS 1:54:23.0 8:44
30 10/122 F3034 10369 TANYA MOLLEKER 33 F VALLEY CENTER KS 1:54:33.6 8:45
31 6/81 F2529 10087 KIM CAPASSO 27 F WICHITA KS 1:54:37.9 8:46
32 7/105 F3539 10247 CAROLYN HOLLOWAY 35 F WICHITA KS 1:54:38.8 8:46
33 5/66 F4044 10296 HEATHER KRASE-MINNICK 41 F LAWRENCE KS 1:54:41.6 8:46
34 11/122 F3034 10544 ALISON SUEPER 34 F WICHITA KS 1:54:45.0 8:46
35 3/34 F2024 10280 HILLARY KAUB 23 F LENEXA KS 1:54:53.6 8:47
36 12/122 F3034 10099 LISA CHRISTY 32 F WICHITA KS 1:55:25.5 8:49
37 6/66 F4044 10666 MELINDA RANGEL 44 F NEWTON KS 1:55:36.7 8:50
38 8/105 F3539 10057 KRISTI BLEICH 36 F WICHITA KS 1:55:51.5 8:51
39 13/122 F3034 10059 BRYANA BOHM 32 F WICHITA KS 1:55:52.1 8:51
40 14/122 F3034 10175 TRACEE FRIESS 30 F CONWAY SPRINGS KS 1:55:52.3 8:51
41 7/66 F4044 10136 JENNI DINKEL 43 F WICHITA KS 1:56:12.9 8:53
42 8/66 F4044 10239 PAULA HICKMAN 42 F WICHITA KS 1:56:13.1 8:53
43 1/2 M3034 10569 DEREK TRABUC 31 M IOLA KS 1:56:13.3 8:53
44 9/105 F3539 10349 JILL MCGINN 37 F SEDGWICK KS 1:56:29.4 8:54
45 7/81 F2529 10496 CATIE SHAFFER 29 F HALSTEAD KS 1:56:34.2 8:54
46 4/34 F2024 10527 CONNOR STAATS 21 F GREENSBURG KS 1:56:47.6 8:55
47 10/105 F3539 10643 REBECCA RATHER 38 F WICHITA KS 1:57:04.1 8:57
48 11/105 F3539 10009 KRISTI ALTENBURG 38 F HOLTON KS 1:57:07.4 8:57
49 9/66 F4044 10451 TANYA REMPEL 40 F WICHITA KS 1:57:08.0 8:57
50 15/122 F3034 10149 CYNDI ERICKSEN 31 F ANDOVER KS 1:57:11.2 8:57

SEE JANE RUN

WICHITA, KANSAS

SEPTEMBER 14, 2013

HALF MARATHON RESULTS

Place Div/Tot Divage Bib Name Age Sex City State Time Pace
51 16/122 F3034 10272 KATIE JONES 34 F SALINA KS 1:57:12.2 8:57
52 8/81 F2529 10083 CARLA CALLARMAN 29 F WICHITA KS 1:57:33.5 8:59
53 17/122 F3034 10266 ASHLEY JANTZ 30 F BELLEVUE NE 1:57:33.8 8:59
54 18/122 F3034 10111 AMY CONKLING 30 F HUTCHINSON KS 1:57:57.2 9:01
55 9/81 F2529 10005 DEBRA ALCANTARA 28 F PARK CITY KS 1:58:02.9 9:01
56 10/81 F2529 10218 KATIE HANZLICEK 27 F HESSTON KS 1:58:04.5 9:01
57 19/122 F3034 10126 TRACY DALBOM 31 F CONWAY SPRINGS KS 1:58:38.3 9:04
58 20/122 F3034 10648 LAURA FISHER 33 F WICHITA KS 1:58:55.0 9:05
59 12/105 F3539 10455 JULIANNA RIESCHICK 36 F PITTSBURG KS 1:59:02.1 9:06
60 21/122 F3034 10414 MELISSA OSTMEYER 33 F SALINA KS 1:59:05.1 9:06
61 1/1 M4549 10358 TIM MELVIN 49 M BLANCHARD OK 1:59:29.3 9:08
62 11/81 F2529 10605 ALANA WAUFORD 28 F LAWTON OK 1:59:44.3 9:09
63 1/11 F0119 10500 REBEKAH SHIRLEY 18 F DODGE CITY KS 1:59:56.5 9:10
64 2/2 M3034 10026 NICHOLAS BAEZA 32 M LAWTON OK 2:00:22.9 9:12
65 12/81 F2529 10534 ABBEY STEINBRINK 29 F WICHITA KS 2:00:39.2 9:13
66 2/11 F0119 10334 ELLA MATTESON 18 F HAVEN KS 2:00:47.5 9:14
67 13/81 F2529 10616 STEPHANIE WHITE 28 F GREENSBURG KS 2:00:49.6 9:14
68 22/122 F3034 10003 MIRANDA AHLSTEDT 33 F WICHITA KS 2:00:58.9 9:15
69 14/81 F2529 10350 ABBY MCGUIRE 29 F DODGE CITY KS 2:01:08.0 9:15
70 15/81 F2529 10371 MARIANNE MOONEY 25 F VALLEY CENTER KS 2:01:26.1 9:17
71 2/44 F4549 10199 STEPHANIE GREENQUIST 45 F TULSA OK 2:01:26.5 9:17
72 23/122 F3034 10449 JENNIFER RAYMO 33 F WICHITA KS 2:01:29.0 9:17
73 24/122 F3034 10271 JENNI JOHNSON 33 F DERBY KS 2:01:32.3 9:17
74 13/105 F3539 10291 ALISA KIRK 38 F SEDGWICK KS 2:01:45.9 9:18
75 16/81 F2529 10117 KRISTEN CORRELL 25 F WICHITA KS 2:01:50.3 9:19
76 14/105 F3539 10477 LAURA SCAGLIONE 35 F ANDOVER KS 2:01:50.4 9:19
77 25/122 F3034 10382 TARA MURFIELD 31 F WICHITA KS 2:01:52.1 9:19
78 26/122 F3034 10039 MARY BEHRING 30 F PRATT KS 2:02:32.4 9:22
79 10/66 F4044 10385 STACEY MUSSER 40 F NEWTON KS 2:02:33.4 9:22
80 17/81 F2529 10337 NANETTE MATTICE 27 F COLUMBUS KS 2:02:34.1 9:22
81 15/105 F3539 10629 JOY YODER 38 F HESSTON KS 2:02:59.3 9:24
82 11/66 F4044 10257 JANELLE HUNSBERGER 43 F HESSTON KS 2:02:59.5 9:24
83 3/44 F4549 10084 JULIE CAMPA 47 F WICHITA KS 2:03:04.6 9:24
84 16/105 F3539 10610 SUSAN WESSEL 39 F PEABODY KS 2:03:05.4 9:24
85 17/105 F3539 10642 ANGELA MCFADDEN 35 F 2:03:12.0 9:25
86 18/105 F3539 10223 JENNIFER BARNARD 35 F ANDOVER KS 2:03:12.2 9:25
87 19/105 F3539 10224 MICHAELA NICKEL 35 F ANDOVER KS 2:03:12.4 9:25
88 20/105 F3539 10438 CASIE POWELL 38 F NORTH NEWTON KS 2:03:21.7 9:26
89 12/66 F4044 10607 CHERI WEBER 43 F NEWTON KS 2:03:36.1 9:27
90 21/105 F3539 10694 CHRIS KRUMM 39 F WICHITA KS 2:03:37.3 9:27
91 22/105 F3539 10013 TIFANI ANDREWS 35 F PONCA CITY OK 2:03:49.9 9:28
92 18/81 F2529 10215 SARAH HANNA 25 F WICHITA KS 2:04:00.6 9:28
93 13/66 F4044 10171 DAWN FRANZ 43 F HALSTEAD KS 2:04:07.6 9:29
94 2/32 F5054 10557 JENNIFER TEMPLETON 51 F WELLINGTON KS 2:04:12.2 9:29
95 4/44 F4549 10547 CONNIE SVOBODA 47 F PARK CITY KS 2:04:17.5 9:30
96 5/44 F4549 10512 MICHELE SINDELAR 47 F LINCOLN NE 2:04:17.9 9:30
97 23/105 F3539 10159 JAMIE FISHER 37 F BEL AIRE KS 2:04:21.6 9:30
98 27/122 F3034 10135 JACKLYN DERSTEIN 30 F WICHITA KS 2:04:21.8 9:30
99 24/105 F3539 10314 RACHEL LOFLAND 38 F MOSCOW MILLS MO 2:04:27.7 9:31
100 25/105 F3539 10308 COURTNEY LESLIE 38 F HUGOTON KS 2:04:29.1 9:31

SEE JANE RUN

WICHITA, KANSAS

SEPTEMBER 14, 2013

HALF MARATHON RESULTS

Place Div/Tot Divage Bib Name Age Sex City State Time Pace
101 28/122 F3034 10078 CHERI BUSENITZ 32 F ELBING KS 2:04:32.8 9:31
102 26/105 F3539 10250 AHARON HOOPES 38 F WICHITA KS 2:04:33.0 9:31
103 19/81 F2529 10251 ANNETTE HORN 28 F ROSE HILL KS 2:04:36.8 9:31
104 6/44 F4549 10103 BEVERLY CLAYCAMP 49 F MAYETTA KS 2:04:47.9 9:32
105 27/105 F3539 10303 JESSICA LANGSTON 37 F TAHLEQUAH OK 2:04:51.0 9:32
106 5/34 F2024 10552 NGAN-ANJI TANG 24 F WICHITA KS 2:05:12.0 9:34
107 20/81 F2529 10202 LATISHA GRIEVE 25 F WICHITA KS 2:05:12.2 9:34
108 28/105 F3539 10319 RACHEL LOVINGFOSS 35 F WICHITA KS 2:05:17.8 9:34
109 3/32 F5054 10295 LEE ANN KRAMER 50 F CHENEY KS 2:05:20.0 9:35
110 29/105 F3539 10376 LESLEY MOUSER 37 F WICHITA KS 2:05:23.7 9:35
111 30/105 F3539 10678 JESS MCMULLIN 38 F PEORIA IL 2:05:28.6 9:35
112 4/32 F5054 10448 JUDY RAY 51 F WINFIELD KS 2:05:34.3 9:36
113 21/81 F2529 10292 BECKY KLAASSEN 27 F CANTON KS 2:05:37.9 9:36
114 7/44 F4549 10542 SHELLY STRONG 45 F WICHITA KS 2:05:39.0 9:36
115 22/81 F2529 10646 BRITTANY SCOGIN 26 F WICHITA KS 2:05:43.6 9:36
116 29/122 F3034 10177 CHRISTINA FRIEZE 34 F BROKEN ARROW OK 2:05:51.4 9:37
117 14/66 F4044 10071 TRACY BROWN 40 F YUKON OK 2:05:51.9 9:37
118 6/34 F2024 10342 OLIVIA MCCARTHY 21 F WICHITA KS 2:06:01.1 9:38
119 15/66 F4044 10046 HEATHER BERNER 44 F WICHITA KS 2:06:28.8 9:40
120 3/11 F0119 10618 AUNA WILBUR 19 F WICHITA KS 2:06:30.2 9:40
121 4/11 F0119 10281 JESSICA KEELEY 19 F MANHATTAN KS 2:06:30.2 9:40
122 23/81 F2529 10348 JESSICA MCGILL 28 F WICHITA KS 2:06:31.2 9:40
123 5/32 F5054 10464 KIM ROSEN 53 F WICHITA KS 2:06:45.3 9:41
124 16/66 F4044 10630 JONI YOUNG 42 F WICHITA KS 2:06:46.9 9:41
125 31/105 F3539 10064 ALLISON BOYER 38 F ROGERSVILLE MO 2:06:47.4 9:41
126 17/66 F4044 10032 STACY BARB 40 F STRAFFORD MO 2:06:47.5 9:41
127 30/122 F3034 10109 BRIDGIT COLEMAN 34 F PONCA CITY OK 2:06:48.6 9:41
128 7/34 F2024 10245 ALISON HOFMEYER 23 F LENEXA KS 2:06:56.2 9:42
129 24/81 F2529 10454 MEGAN RICE 29 F ULYSSES KS 2:06:58.9 9:42
130 18/66 F4044 10053 SHAUNA BLACK 42 F CHENEY KS 2:07:05.6 9:43
131 19/66 F4044 10043 YVONNE BENWARD 44 F CHENEY KS 2:07:06.4 9:43
132 25/81 F2529 10693 LESLIE HOOPER 26 F ROSE HILL KS 2:07:19.1 9:44
133 31/122 F3034 10450 JENNIFER REED 31 F KINGMAN KS 2:07:19.4 9:44
134 32/105 F3539 10284 ERIN KENDALL 36 F WICHITA KS 2:07:19.7 9:44
135 32/122 F3034 10423 CHRISTINA PEEK 34 F WICHITA KS 2:07:23.5 9:44
136 33/122 F3034 10424 CARRIE PENKA 34 F WICHITA KS 2:07:27.1 9:44
137 34/122 F3034 10131 JENNIFER DAVIS 33 F BENTLEY KS 2:07:28.6 9:44
138 35/122 F3034 10022 STEPHANIE AUSTIN 31 F PONCA CITY OK 2:07:34.7 9:45
139 1/12 F5559 10031 DEBRA BALL 56 F WICHITA KS 2:07:58.3 9:47
140 26/81 F2529 10403 RACHEL NORRIS 25 F EL DORADO KS 2:08:00.4 9:47
141 36/122 F3034 10324 BETH MANCINO 32 F SALINA KS 2:08:07.3 9:47
142 27/81 F2529 10514 MELISSA SLACK 26 F MANHATTAN KS 2:08:07.4 9:47
143 8/34 F2024 10583 ANNALYNNE VAN VOGT 23 F WICHITA KS 2:08:12.6 9:48
144 37/122 F3034 10356 JENNIFER MELENDY 34 F WICHITA KS 2:08:17.1 9:48
145 38/122 F3034 10541 ADRIENNE STROHMEYER 33 F WICHITA KS 2:08:22.6 9:48
146 20/66 F4044 10640 SARAH BROWN 43 F 2:08:27.1 9:49
147 6/32 F5054 10286 MELANIE KERWIN 53 F OLPE KS 2:08:51.3 9:51
148 33/105 F3539 10327 TASIA MARKOWITZ 35 F OLPE KS 2:08:51.4 9:51
149 39/122 F3034 10306 AMANDA LEE 32 F WICHITA KS 2:08:53.0 9:51
150 9/34 F2024 10252 NATALIE HUBBELL 21 F LAWRENCE KS 2:09:12.1 9:52

SEE JANE RUN

WICHITA, KANSAS

SEPTEMBER 14, 2013

HALF MARATHON RESULTS

Place Div/Tot Divage Bib Name Age Sex City State Time Pace
151 40/122 F3034 10172 NATALIE FRASER 33 F PONCA CITY OK 2:09:12.7 9:52
152 34/105 F3539 10474 ANGIE RUSSELL 38 F WICHITA KS 2:09:23.7 9:53
153 10/34 F2024 10147 CORTNEY ENGELS 22 F ANDALE KS 2:09:42.2 9:55
154 28/81 F2529 10574 BRITTANY TURNER 25 F NORMAN OK 2:09:55.8 9:56
155 11/34 F2024 10216 JAMIE HANSEN 20 F NORTH NEWTON KS 2:10:00.1 9:56
156 21/66 F4044 10415 MELISSA OWEN 40 F NOWATA OK 2:10:01.3 9:56
157 8/44 F4549 10400 ROBIN NIKKEL 47 F ELDORADO KS 2:10:04.3 9:56
158 41/122 F3034 10657 MIRANDA BACHMAN 30 F WICHITA KS 2:10:18.8 9:57
159 35/105 F3539 10515 CRISTA SMITH 39 F ANDOVER KS 2:10:23.8 9:58
160 7/32 F5054 10116 DEANNE CORN 54 F ELLSWORTH KS 2:10:41.6 9:59
161 36/105 F3539 10625 ERIN WITHERS 35 F WICHITA KS 2:10:51.3 10:00
162 12/34 F2024 10231 JESSICA HEIDEBRECHT 24 F OMAHA NE 2:11:01.5 10:01
163 22/66 F4044 10144 RENEE EDIGER 43 F HALSTEAD KS 2:11:24.2 10:02
164 37/105 F3539 10521 AMY SPEER 37 F WICHITA KS 2:12:00.5 10:05
165 38/105 F3539 10539 JENNIFER STRAUSZ 39 F MOUNDRIDGE KS 2:12:16.6 10:06
166 42/122 F3034 10410 MAUREEN OFFER 31 F SAN FRANCISCO CA 2:12:27.0 10:07
167 29/81 F2529 10409 EILEEN OFFER 28 F LAKE OSWEGO OR 2:12:27.2 10:07
168 8/32 F5054 10282 TERRI KEELEY 52 F MANHATTAN KS 2:12:30.8 10:07
169 39/105 F3539 10644 KRISTIN ACKER 38 F BEL AIRE KS 2:12:31.0 10:07
170 40/105 F3539 10459 CAROLINE ROGERS 37 F BENTON KS 2:12:34.7 10:08
171 43/122 F3034 10317 RACHEL LOPRESTE 34 F DERBY KS 2:12:36.6 10:08
172 23/66 F4044 10591 JENNIFER VOGTS 44 F NORTH NEWTON KS 2:12:37.0 10:08
173 1/2 M4044 10377 PHILIP MOWERY 44 M TUTTLE OK 2:13:16.6 10:11
174 30/81 F2529 10238 CARLY HERTZOG 25 F ARLINGTON TX 2:13:34.4 10:12
175 44/122 F3034 10067 AMBER BROOKS 31 F PITTSBURG KS 2:14:06.9 10:15
176 31/81 F2529 10405 AMY NWAGWU 29 F PITTSBURG KS 2:14:07.0 10:15
177 45/122 F3034 10297 JENNIFER KRIER 31 F WICHITA KS 2:14:12.7 10:15
178 9/44 F4549 10205 JILL GRINNELL 47 F SPRINGFIELD MO 2:14:14.6 10:15
179 13/34 F2024 10206 LILY GUERRERO 24 F WICHITA KS 2:14:16.0 10:15
180 46/122 F3034 10473 LAURA ROWLEY 31 F WICHITA KS 2:14:17.4 10:16
181 47/122 F3034 10584 CASEY VANHOESEN 33 F PONCA CITY OK 2:14:24.1 10:16
182 9/32 F5054 10421 SHELLY PATTERSON 50 F PRATT KS 2:14:25.7 10:16
183 48/122 F3034 10051 JENNIFER BIRD 30 F PARK CITY KS 2:14:30.8 10:17
184 10/44 F4549 10008 MARY ALLISON 48 F OLATHE KS 2:14:33.1 10:17
185 49/122 F3034 10458 JENNIFER ROESLER 33 F WICHITA KS 2:14:38.0 10:17
186 50/122 F3034 10014 MEGAN APPENFELLER 31 F WICHITA KS 2:14:44.6 10:18
187 51/122 F3034 10279 DEEANN KASPRICK 34 F GODDARD KS 2:14:45.9 10:18
188 10/32 F5054 10556 KENNA TEEL 52 F SHAWNEE KS 2:14:50.2 10:18
189 52/122 F3034 10667 AMANDA NICHOLS 31 F WAKEFIELD KS 2:15:04.0 10:19
190 41/105 F3539 10580 JENNIFER UNREIN 38 F WICHITA KS 2:15:10.6 10:20
191 2/12 F5559 10352 BETTY MCKENZIE 57 F WICHITA KS 2:15:17.6 10:20
192 32/81 F2529 10073 SHERIDAN BRULL 28 F MULVANE KS 2:15:28.8 10:21
193 24/66 F4044 10027 LATAUNIA BAHR 40 F HENDERSON NV 2:15:39.3 10:22
194 42/105 F3539 10561 JENNI THOMPSON 36 F FAYETTE IA 2:15:49.9 10:23
195 33/81 F2529 10434 TIFFANY PHILLIPS 28 F PARSONS KS 2:15:50.0 10:23
196 43/105 F3539 10201 LISA GREY 37 F EMPORIA KS 2:16:07.1 10:24
197 53/122 F3034 10495 BROOKS SEVERSON 33 F WICHITA KS 2:16:08.3 10:24
198 54/122 F3034 10221 KRISTEN HARRIS 33 F WICHITA KS 2:16:14.5 10:24
199 11/32 F5054 10141 TERESA EAGAN 53 F NORTH KINGSTOWN RI 2:16:20.4 10:25
200 34/81 F2529 10134 AMANDA DEMAGISTRIS 26 F NORTH KINGSTOWN RI 2:16:20.5 10:25

SEE JANE RUN

WICHITA, KANSAS

SEPTEMBER 14, 2013

HALF MARATHON RESULTS

Place Div/Tot Divage Bib Name Age Sex City State Time Pace
201 35/81 F2529 10696 NICHOLE HEAD 29 F WICHITA KS 2:16:21.3 10:25
202 55/122 F3034 10588 DESI VINER 30 F WICHITA KS 2:16:21.4 10:25
203 56/122 F3034 10529 MARI STAUTH 33 F SEDGWICK KS 2:16:22.6 10:25
204 44/105 F3539 10025 HEATHER ODELL 38 F FREDONIA KS 2:16:29.6 10:26
205 57/122 F3034 10596 JESSICA WADE 34 F WICHITA KS 2:16:30.5 10:26
206 14/34 F2024 10158 ANESSA FISH 22 F RAYMOND KS 2:16:55.7 10:28
207 15/34 F2024 10333 BRENNA MATTESON 21 F HUTCHINSON KS 2:16:55.8 10:28
208 16/34 F2024 10549 SHELBY SWANSON 24 F SPRINGDALE AR 2:16:59.6 10:28
209 36/81 F2529 10133 MEAGAN DEES 26 F SILOAM SPRINGS AR 2:16:59.7 10:28
210 45/105 F3539 10155 JAIME FICKEL 35 F CHANUTE KS 2:17:00.4 10:28
211 58/122 F3034 10365 ANGELA MINTON 34 F DERBY KS 2:17:23.3 10:30
212 59/122 F3034 10695 LIZ AUSTIN 33 F DERBY KS 2:17:23.6 10:30
213 60/122 F3034 10627 SARAH WULFKUHLE ANSCHUTZ 31 F SALINA KS 2:17:27.5 10:30
214 61/122 F3034 10679 KIRA EBERHART 32 F MOUND VALLEY KS 2:17:30.6 10:30
215 11/44 F4549 10316 JOY LOOP 49 F WICHITA KS 2:17:33.3 10:31
216 37/81 F2529 10379 JEN MULLINS 28 F WICHITA KS 2:17:55.0 10:32
217 12/32 F5054 10044 DEBBIE BERG 51 F ENID OK 2:18:08.2 10:33
218 46/105 F3539 10196 RANDI KAY GRAHAM 38 F WICHITA KS 2:18:14.7 10:34
219 12/44 F4549 10460 YOLANDA ROGERS 47 F ULYSSES KS 2:18:35.7 10:35
220 62/122 F3034 10152 MANDY FAUST 32 F HAYSVILLE KS 2:18:40.6 10:36
221 47/105 F3539 10188 KARA GILBERT 37 F DERBY KS 2:18:41.2 10:36
222 13/44 F4549 10089 COLLEEN CASENOVE 48 F GODDARD KS 2:18:45.6 10:36
223 63/122 F3034 10658 TESSA DUNCAN 33 F 2:18:55.0 10:37
224 38/81 F2529 10007 SARAH ALEXANDER 25 F PARK CITY KS 2:19:18.8 10:39
225 25/66 F4044 10637 ANNE DINKEL 41 F VICTORIA KS 2:19:25.3 10:39
226 26/66 F4044 10033 AMY BARKER 43 F WICHITA KS 2:19:42.9 10:40
227 39/81 F2529 10624 ASHLEY WINTER 27 F WICHITA KS 2:19:43.0 10:40
228 64/122 F3034 10023 STACY AYLWARD 34 F ANDALE KS 2:19:59.3 10:42
229 48/105 F3539 10609 TONYA WELLS 37 F WICHITA KS 2:19:59.6 10:42
230 65/122 F3034 10204 JULIE GRIFFIN 33 F CHENEY KS 2:20:06.1 10:42
231 49/105 F3539 10412 CHANTEAU ORR 38 F TULSA OK 2:20:06.6 10:42
232 66/122 F3034 10038 AMBER BEHR 30 F ANDOVER KS 2:20:14.5 10:43
233 13/32 F5054 10528 JUDY STANTON 51 F DERBY KS 2:20:21.4 10:43
234 40/81 F2529 10516 DANNA SMITH 28 F LINCOLN NE 2:20:59.9 10:46
235 5/11 F0119 10432 BRANDI PHILLIPS 17 F PARTRIDGE KS 2:21:04.2 10:47
236 41/81 F2529 10164 ERIN FLANNERY 25 F LAWRENCE KS 2:21:08.3 10:47
237 67/122 F3034 10162 ALISON FLANNERY 31 F LAWRENCE KS 2:21:08.8 10:47
238 1/2 M3539 10163 DAVID FLANNERY 38 M LAWRENCE KS 2:21:11.4 10:47
239 3/12 F5559 10151 BEV EXPOSITO 56 F HUTCHINSON KS 2:21:16.8 10:48
240 68/122 F3034 10226 KRISTI HAVERKAMP 31 F SEDGWICK KS 2:21:36.4 10:49
241 42/81 F2529 10339 RACHEL MAXWELL 29 F VALLEY CENTER KS 2:21:36.8 10:49
242 43/81 F2529 10684 ASHLEE BRUNDAGE 28 F WICHITA KS 2:21:37.4 10:49
243 44/81 F2529 10392 MICHELLE NENTWIG 29 F WICHITA KS 2:21:37.9 10:49
244 45/81 F2529 10513 HANNAH SISK 28 F WICHITA KS 2:21:44.1 10:50
245 27/66 F4044 10186 DAWN GAUVIN 44 F WARRENSBURG MO 2:22:10.2 10:52
246 50/105 F3539 10143 JOLEE ECKERT 38 F TOPEKA KS 2:22:18.3 10:52
247 14/44 F4549 10052 KENRA BLACK 48 F WICHITA KS 2:22:21.7 10:53
248 51/105 F3539 10119 STEPHANIE COWMAN 35 F BENTON KS 2:22:31.5 10:53
249 52/105 F3539 10093 BRANDI CHADWELL 35 F BENTON KS 2:22:31.7 10:53
250 28/66 F4044 10313 JULIE LINNENS 42 F HILLSBORO KS 2:22:43.6 10:54

SEE JANE RUN

WICHITA, KANSAS

SEPTEMBER 14, 2013

HALF MARATHON RESULTS

Place Div/Tot Divage Bib Name Age Sex City State Time Pace
251 46/81 F2529 10360 ANDREA MESPLAY 29 F OWASSO OK 2:22:55.4 10:55
252 69/122 F3034 10406 BREANN OCHS 32 F WICHITA KS 2:22:55.6 10:55
253 29/66 F4044 10273 KATRINA JONES 41 F LEES SUMMIT MO 2:23:05.8 10:56
254 14/32 F5054 10076 RHONDA BURT 52 F BENNINGTON KS 2:23:08.8 10:56
255 53/105 F3539 10361 ELIZABETH MESSERLY 36 F OLATHE KS 2:23:13.2 10:56
256 15/32 F5054 10428 KELLY PFANNENSTIEL 50 F OLATHE KS 2:23:16.6 10:57
257 30/66 F4044 10194 TAMARA GOSS 41 F HAYSVILLE KS 2:23:17.5 10:57
258 54/105 F3539 10264 STACI BIRNEY 36 F HUTCHINSON KS 2:23:18.6 10:57
259 17/34 F2024 10498 STEPHANIE SHARTZER 20 F WICHITA KS 2:23:21.5 10:57
260 15/44 F4549 10456 JEANETTE RITTHALER 45 F WICHITA KS 2:23:27.8 10:58
261 31/66 F4044 10506 BRANDY SILER 40 F ANDOVER KS 2:23:35.9 10:58
262 70/122 F3034 10160 TAMARA FISHER 34 F CLEARWATER KS 2:23:42.1 10:59
263 16/44 F4549 10368 KARI MOLISEE 48 F PECK KS 2:23:43.1 10:59
264 47/81 F2529 10092 LINDSEY CECIL 27 F DODGE CITY KS 2:23:45.1 10:59
265 55/105 F3539 10639 SARAHIGN MARTINEZ 35 F 2:24:03.0 11:00
266 16/32 F5054 10006 ARLEIGH ALDRICH 53 F DERBY KS 2:24:07.9 11:01
267 32/66 F4044 10208 DEBORAH GULLEY 41 F ANTHONY KS 2:24:13.8 11:01
268 56/105 F3539 10228 ANGELINE HAYES 38 F ROSE HILL KS 2:24:19.5 11:02
269 71/122 F3034 10294 KAREN KORVER 32 F TEA SD 2:24:32.8 11:03
270 33/66 F4044 10344 VALERIE MCCUTCHEON 41 F NEWTON KS 2:24:47.1 11:04
271 72/122 F3034 10248 AMBER HOLMES 31 F WICHITA KS 2:25:03.0 11:05
272 48/81 F2529 10269 ASHLEY JOHNSON 27 F WICHITA KS 2:25:18.6 11:06
273 49/81 F2529 10652 FRANCESCA DERANZO 27 F 2:25:18.8 11:06
274 73/122 F3034 10278 JESSICA KAISER 30 F URBANA OH 2:25:53.2 11:09
275 18/34 F2024 10150 ELKEE ERICKSON 24 F MCPHERSON KS 2:25:54.5 11:09
276 74/122 F3034 10268 RACHELLE JESSEPH 34 F DERBY KS 2:25:55.0 11:09
277 17/44 F4549 10401 JACQUE NORRIS 47 F GODDARD KS 2:26:17.4 11:11
278 18/44 F4549 10246 TERRI HOLCOM 45 F WICHITA KS 2:26:17.4 11:11
279 57/105 F3539 10015 DIANA ARENSDORF 38 F PRATT KS 2:26:23.7 11:11
280 34/66 F4044 10453 HEATHER RICE 42 F PRATT KS 2:26:24.6 11:11
281 58/105 F3539 10408 CHARISE OELGER 36 F GREAT BEND KS 2:26:40.6 11:12
282 75/122 F3034 10146 RENEE JACKSON 34 F 2:26:53.3 11:13
283 59/105 F3539 10137 MIRANDA DINKEL 37 F FREDONIA KS 2:27:11.0 11:15
284 4/12 F5559 10501 DEBORA SHORES 59 F WICHITA KS 2:27:24.6 11:16
285 50/81 F2529 10593 MEGHAN VORHEES 29 F FREDONIA KS 2:27:28.8 11:16
286 35/66 F4044 10036 DEBBIE BEAM 43 F TOPEKA KS 2:28:12.3 11:19
287 60/105 F3539 10001 JENNIFER ADAMS 36 F WICHITA KS 2:28:16.4 11:20
288 19/34 F2024 10180 DESIRAE GAGNON 23 F ALVA OK 2:28:25.3 11:20
289 51/81 F2529 10551 ADRIANA TALLMAN 28 F PRAIRIE VILLAGE KS 2:28:39.6 11:21
290 36/66 F4044 10045 PAMELA BERNDT 42 F SALINA KS 2:28:40.1 11:21
291 52/81 F2529 10396 BARBARA NGUYEN 25 F WICHITA KS 2:28:40.4 11:21
292 53/81 F2529 10363 AMANDA MILLER 25 F WICHITA KS 2:28:40.4 11:21
293 17/32 F5054 10173 KIMBERLY FREDERKING 50 F SALINA KS 2:28:43.7 11:22
294 37/66 F4044 10129 KIM DARDEN 43 F ANDOVER KS 2:28:51.0 11:22
295 54/81 F2529 10402 JORDAN KIEFFER 26 F KS 2:28:52.2 11:22
296 18/32 F5054 10010 MARCIE ALTMAN 50 F DERBY KS 2:29:10.8 11:24
297 76/122 F3034 10567 LYNNA TOY 30 F WICHITA KS 2:29:18.1 11:24
298 77/122 F3034 10565 AMANDA TINDLE 33 F FREDONIA KS 2:29:33.1 11:25
299 61/105 F3539 10235 KRY HENRY 37 F WARRENSBURG MO 2:30:02.9 11:28
300 78/122 F3034 10024 SARAH BACHMAN 34 F WICHITA KS 2:30:05.2 11:28

SEE JANE RUN

WICHITA, KANSAS

SEPTEMBER 14, 2013

HALF MARATHON RESULTS

Place Div/Tot Divage Bib Name Age Sex City State Time Pace
301 6/11 F0119 10207 AMANDA GULLEY 14 F ANTHONY KS 2:30:26.0 11:30
302 19/44 F4549 10662 PAULA RIDGWAY 47 F ELDORADO KS 2:30:27.2 11:30
303 20/44 F4549 10233 SHERRY HEINEL 47 F TOWANDA KS 2:30:27.2 11:30
304 19/32 F5054 10492 MARCIE SCIPIO 50 F MANHATTAN KS 2:30:30.3 11:30
305 21/44 F4549 10413 RHONDA ORTEGA 47 F JUNCTION CITY KS 2:30:30.4 11:30
306 2/3 F6064 10594 BARBARA VOTH 61 F HENDERSON NE 2:30:31.6 11:30
307 20/34 F2024 10240 LINDSEY HILDRETH 24 F EL DORADO KS 2:30:47.9 11:31
308 20/32 F5054 10331 ROSIE MARTINEZ 54 F FORT WORTH TX 2:30:50.3 11:31
309 21/32 F5054 10242 SHARI HOCKENBERY 54 F OVERLAND PARK KS 2:31:12.1 11:33
310 79/122 F3034 10649 AMANDA CERVANTES 32 F WICHITA KS 2:31:40.2 11:35
311 62/105 F3539 10370 SARAH MONTANO 38 F NEWTON KS 2:31:41.6 11:35
312 63/105 F3539 10017 CARRIE ARNETT 38 F WICHITA KS 2:31:59.7 11:37
313 64/105 F3539 10676 SACHA CURRY 39 F WICHITA KS 2:32:04.4 11:37
314 22/44 F4549 10357 SHERYS MELLEN 49 F CLEARWATER KS 2:32:18.4 11:38
315 38/66 F4044 10293 LENNA KNOLL 43 F HILLSBORO KS 2:32:28.7 11:39
316 22/32 F5054 10047 KIM BESSAC 54 F WICHITA KS 2:32:33.2 11:39
317 23/44 F4549 10355 REBECCA MEDINA 45 F JUNCTION CITY KS 2:32:34.6 11:39
318 39/66 F4044 10182 JENNIFER GARCIA 42 F HUTCHINSON KS 2:32:39.9 11:40
319 23/32 F5054 10340 PEGGY MCADAM 50 F CEDAR VALE KS 2:32:46.3 11:40
320 40/66 F4044 10429 MINDI PFANNENSTIEL 41 F TOPEKA KS 2:33:21.7 11:43
321 21/34 F2024 10174 LAURA FRIEDBERG 24 F WICHITA KS 2:33:35.5 11:44
322 24/44 F4549 10156 BEV FINNEY 46 F BENTON KS 2:33:38.7 11:44
323 80/122 F3034 10587 ANNA VILLARREAL 30 F WICHITA KS 2:33:42.2 11:44
324 22/34 F2024 10106 STEPHANIE CLINE 24 F GREAT BEND KS 2:33:54.7 11:45
325 81/122 F3034 10307 TIFFANY LENINGTON 34 F ROGERSVILLE MO 2:34:07.2 11:46
326 25/44 F4549 10341 JAN MCALLISTER 48 F EL DORADO KS 2:34:13.7 11:47
327 26/44 F4549 10241 LORI HILDRETH 49 F EL DORADO KS 2:34:13.8 11:47
328 23/34 F2024 10692 JESSICA HANSMAYER 23 F DERBY KS 2:34:50.8 11:50
329 27/44 F4549 10655 KRIS NARRON 48 F SPRINGFIELD MO 2:34:55.4 11:50
330 5/12 F5559 10197 KAY GRANATH 56 F HIGHLANDS RANCH CO 2:35:11.4 11:51
331 82/122 F3034 10563 TARA THORNBURG 31 F WICHITA KS 2:35:17.6 11:52
332 83/122 F3034 10277 LINDSEY CANTWELL 33 F WICHITA KS 2:35:17.7 11:52
333 1/1 M2529 10562 LEE THORNBURG 29 M WICHITA KS 2:35:17.8 11:52
334 65/105 F3539 10190 KATE GONDA 35 F WICHITA KS 2:35:18.0 11:52
335 84/122 F3034 10540 MELISSA STRINGER 33 F SHAWNEE KS 2:35:30.6 11:53
336 41/66 F4044 10597 SANDI WADMAN 40 F WICHITA KS 2:35:35.2 11:53
337 42/66 F4044 10343 HEIDI MCCLELLAN 40 F ANDOVER KS 2:35:38.9 11:53
338 55/81 F2529 10687 ASHLEY LAMM 26 F WICHITA KS 2:36:02.7 11:55
339 24/32 F5054 10484 PENNY SCHMEIDLER 52 F PRATT KS 2:36:03.1 11:55
340 66/105 F3539 10573 CHRISTY TUCKER 36 F WICHITA KS 2:36:03.9 11:55
341 67/105 F3539 10611 CAREY WEST 37 F TOWANDA KS 2:36:13.4 11:56
342 43/66 F4044 10048 KIM BETLACH 41 F WICHITA KS 2:36:45.7 11:58
343 28/44 F4549 10394 SUSAN NEWCOMB 49 F MECHANICSVILLE VA 2:36:53.5 11:59
344 85/122 F3034 10121 JANE CRAWFORD 33 F NEWTON KS 2:37:09.9 12:00
345 44/66 F4044 10517 KIM SMITH 41 F NEWTON KS 2:37:12.0 12:00
346 68/105 F3539 10426 SHAWNA PERRY 39 F WICHITA KS 2:37:13.2 12:01
347 56/81 F2529 10572 LINDSAY TRIPLETT 29 F ANDOVER KS 2:37:13.9 12:01
348 86/122 F3034 10311 REBECCA LEWIS 31 F PRAIRIE VILLAGE KS 2:37:18.9 12:01
349 87/122 F3034 10507 ALLISON SIMON 34 F VIOLA KS 2:37:29.0 12:02
350 69/105 F3539 10481 JACKIE SCHICK 38 F WICHITA KS 2:37:41.1 12:03

SEE JANE RUN

WICHITA, KANSAS

SEPTEMBER 14, 2013

HALF MARATHON RESULTS

Place Div/Tot Divage Bib Name Age Sex City State Time Pace
351 2/2 M3539 10480 ERIK SCHICK 38 M WICHITA KS 2:37:41.6 12:03
352 45/66 F4044 10002 JULIE ADAMS 41 F WICHITA KS 2:37:56.2 12:04
353 46/66 F4044 10170 KRISTI FRANKS 44 F MULVANE KS 2:38:01.4 12:04
354 70/105 F3539 10417 ALICIA PAINTER 39 F YUKON OK 2:38:04.1 12:04
355 57/81 F2529 10042 ALICIA BENSON 29 F WAMEGO KS 2:38:35.1 12:07
356 71/105 F3539 10012 DEBRA ANDREWS 39 F SALINA KS 2:38:51.8 12:08
357 6/12 F5559 10391 KATHY NEMES 57 F AUBURN CA 2:39:02.7 12:09
358 24/34 F2024 10390 CAROL NEMES 22 F AUBURN CA 2:39:02.9 12:09
359 88/122 F3034 10104 CAREY CLAYCAMP 32 F BENTON KS 2:39:08.8 12:09
360 72/105 F3539 10526 BOBBIE SPRY 37 F LINCOLN MO 2:39:16.9 12:10
361 89/122 F3034 10072 MELODY BRUCE 31 F WICHITA KS 2:39:17.7 12:10
362 73/105 F3539 10505 SUZANNE SIEMENS 36 F INMAN KS 2:39:18.4 12:10
363 90/122 F3034 10050 KIMBERLY BIEKER 31 F TOPEKA KS 2:39:37.8 12:12
364 74/105 F3539 10570 SALENA TRABUC 35 F IOLA 2:40:01.8 12:13
365 75/105 F3539 10601 NAOMI WALLACE 35 F BEL AIRE KS 2:40:07.5 12:14
366 76/105 F3539 10320 MELISSA LUND 37 F ABILENE KS 2:40:37.2 12:16
367 91/122 F3034 10636 LORI ZUBER 31 F WICHITA KS 2:41:05.5 12:18
368 92/122 F3034 10488 KRISTIE SCHMIDT 34 F WICHITA KS 2:41:28.8 12:20
369 77/105 F3539 10387 JENNIFER NAYLOR 36 F ROSE HILL KS 2:41:29.0 12:20
370 47/66 F4044 10230 GENA HEGEMANN 42 F LINCOLN NE 2:41:29.4 12:20
371 48/66 F4044 10123 RHONDA CROSBY 42 F ROSE HILL KS 2:41:30.4 12:20
372 1/1 NOAGE 10656 AMY CALALLARO 99 F 2:41:30.8 12:20
373 78/105 F3539 10482 CRYSTAL SCHLEGEL 37 F EL DORADO KS 2:41:30.9 12:20
374 79/105 F3539 10475 KASEY SANDERS 37 F SILVER LAKE KS 2:41:52.0 12:22
375 29/44 F4549 10086 KAY CANIGLIA 49 F FREDONIA KS 2:41:52.3 12:22
376 30/44 F4549 10234 CARLA HEINTZ 48 F WICHITA KS 2:41:57.1 12:22
377 49/66 F4044 10113 JULIE COOPER 40 F EMPORIA KS 2:42:05.6 12:23
378 25/34 F2024 10040 CHRISTY BENNETT 23 F WICHITA KS 2:42:12.6 12:23
379 50/66 F4044 10108 STACY COLE 44 F BLANCHARD OK 2:42:16.8 12:24
380 51/66 F4044 10115 TENA COPPEDGE 43 F BLANCHARD OK 2:42:17.0 12:24
381 2/2 M4044 10270 CARROLL JOHNSON 42 M BEL AIRE KS 2:42:24.9 12:24
382 80/105 F3539 10497 CARRIE SHARPE 37 F WICHITA KS 2:42:39.8 12:26
383 81/105 F3539 10518 STEPHANIE SMITH 39 F WICHITA KS 2:42:40.1 12:26
384 26/34 F2024 10225 RACHEL HAUGHT 23 F WELLINGTON KS 2:42:56.7 12:27
385 93/122 F3034 10375 KRISTY MOTTER 32 F EL DORADO KS 2:43:00.7 12:27
386 82/105 F3539 10493 KRISTA SEARLE 35 F WICHITA KS 2:43:06.8 12:28
387 94/122 F3034 10243 LORALIE HODGES 33 F DERBY KS 2:43:20.1 12:29
388 95/122 F3034 10189 SARA GLOTZBACH 30 F WAMEGO KS 2:43:55.8 12:31
389 58/81 F2529 10080 KERI BYE 28 F WICHITA KS 2:44:03.9 12:32
390 59/81 F2529 10130 ANNA DAVIS 28 F WICHITA KS 2:44:04.1 12:32
391 7/11 F0119 10604 SARAH WATKINS 18 F DERBY KS 2:44:41.1 12:35
392 8/11 F0119 10603 ANNA WATKINS 17 F DERBY 2:44:41.7 12:35
393 7/12 F5559 10398 BECKY NICOLETTI 58 F TOPEKA KS 2:44:43.1 12:35
394 83/105 F3539 10353 AMY MCLEMORE 38 F PONCA CITY OK 2:44:44.6 12:35
395 52/66 F4044 10577 NANCY TYNDALL 40 F PONCA CITY OK 2:44:46.3 12:35
396 96/122 F3034 10095 JAYCI CHANEY 30 F CHANUTE KS 2:45:04.5 12:37
397 60/81 F2529 10568 SOPHIA TOY 26 F WICHITA KS 2:45:07.6 12:37
398 97/122 F3034 10697 LAURA BIANCO 32 F WICHITA KS 2:45:17.8 12:38
399 84/105 F3539 10389 CARRIE NELLANS 35 F PEABODY KS 2:45:45.1 12:40
400 61/81 F2529 10522 ELIZABETH SPENCE 28 F WICHITA KS 2:45:47.2 12:40

SEE JANE RUN

WICHITA, KANSAS

SEPTEMBER 14, 2013

HALF MARATHON RESULTS

Place Div/Tot Divage Bib Name Age Sex City State Time Pace
401 62/81 F2529 10140 MEGHAN DOYLE 27 F MAIZE KS 2:45:47.3 12:40
402 31/44 F4549 10253 ANITA HUDSON 48 F VALLEY CENTER KS 2:45:51.1 12:40
403 9/11 F0119 10510 ERICA SIMS 19 F VALLEY CENTER KS 2:45:52.0 12:40
404 27/34 F2024 10632 LOGAN YOUNG 23 F WICHITA KS 2:46:15.4 12:42
405 32/44 F4549 10275 IRIS JORGENSEN 46 F PONCA CITY OK 2:46:23.6 12:43
406 85/105 F3539 10397 ERIN NICHOLS 37 F PARK CITY KS 2:46:47.8 12:44
407 33/44 F4549 10283 STEFANI KELLY 45 F WICHITA KS 2:46:55.6 12:45
408 63/81 F2529 10665 JESSI ZIEPFEL 26 F GREAT BEND KS 2:46:58.6 12:45
409 98/122 F3034 10571 HIEN TRAN 34 F WICHITA KS 2:46:59.2 12:45
410 34/44 F4549 10585 ANGELA VARVEL 47 F FALUN KS 2:47:08.9 12:46
411 28/34 F2024 10332 TIFFANY MARX 24 F MCPHERSON KS 2:47:16.6 12:47
412 99/122 F3034 10486 ANDREA SCHMIDT 32 F MCPHERSON KS 2:47:16.7 12:47
413 86/105 F3539 10070 TANYA BROWN 39 F OKLAHOMA CITY OK 2:47:42.5 12:49
414 64/81 F2529 10373 LAURYN MORRISS 26 F MCPHERSON KS 2:47:50.1 12:49
415 53/66 F4044 10374 MELANIE MORRISS 43 F DOUGLASS KS 2:47:51.9 12:49
416 8/12 F5559 10645 MELINDA WIENS 59 F HILLSBORO KS 2:48:07.0 12:50
417 100/122 F3034 10214 MEGAN HALFMANN 33 F DALLAS TX 2:48:08.6 12:51
418 87/105 F3539 10276 MELANIE KABA 35 F OAKLAND CA 2:48:09.0 12:51
419 88/105 F3539 10626 CHRISTINA WOOD 36 F WICHITA KS 2:48:23.9 12:52
420 9/12 F5559 10545 JENNIFER SULLIVAN 58 F WICHITA KS 2:48:29.1 12:52
421 29/34 F2024 10546 SHANNON SULLIVAN 24 F WICHITA KS 2:48:29.3 12:52
422 65/81 F2529 10463 SARA ROSEMEYER 27 F DERBY KS 2:49:09.9 12:55
423 54/66 F4044 10168 KATHY FOWLER 43 F ENID OK 2:49:43.5 12:58
424 10/12 F5559 10285 CHERYL KENT 57 F ENID OK 2:49:43.8 12:58
425 89/105 F3539 10058 STEPHANIE BLUM 36 F PONCA CITY OK 2:49:50.4 12:58
426 66/81 F2529 10681 JANINE ROBERSON 28 F WICHITA KS 2:49:50.8 12:58
427 35/44 F4549 10139 MAUREEN DOWSEY 46 F PARTRIDGE KS 2:50:14.9 13:00
428 67/81 F2529 10663 MEGHAN MCFEE 25 F GARDEN CITY KS 2:50:30.2 13:01
429 90/105 F3539 10395 FRANCES NEWSTED 39 F FORT WAINWRIGHT AK 2:50:41.7 13:02
430 55/66 F4044 10075 THERESA BURR 42 F SAPULPA OK 2:50:48.2 13:03
431 68/81 F2529 10054 BRITTON BLANCHAT 25 F HARPER KS 2:50:48.4 13:03
432 30/34 F2024 10345 ALYSSA MCDANIEL 24 F WICHITA KS 2:51:01.7 13:04
433 25/32 F5054 10167 MARY-ELLEN FORTINI 54 F CASTRO VALLEY CA 2:51:01.9 13:04
434 101/122 F3034 10112 AMY CONNELLY 34 F OVERLAND PARK KS 2:51:15.2 13:05
435 102/122 F3034 10192 SORRINA GONZALEZ 30 F PARK CITY KS 2:51:30.1 13:06
436 69/81 F2529 10461 CASSANDRA ROLLMAN 28 F WICHITA KS 2:51:49.1 13:07
437 70/81 F2529 10508 KELSI SIMPSON 26 F ANTHONY KS 2:51:58.2 13:08
438 91/105 F3539 10101 JENNIFER CLARK 39 F ANTHONY KS 2:51:58.9 13:08
439 56/66 F4044 10079 PAM BUSTER 44 F ANDOVER KS 2:52:03.7 13:09
440 103/122 F3034 10582 SARAH UNRUH 32 F FREDONIA KS 2:52:20.7 13:10
441 104/122 F3034 10595 KRISTEN VOTH 34 F WICHITA KS 2:52:29.2 13:11
442 92/105 F3539 10193 KASEY GOOCH 37 F VALLEY CENTER KS 2:52:42.7 13:12
443 57/66 F4044 10641 PAMELA DAVIS 44 F 2:53:13.6 13:14
444 105/122 F3034 10689 KRISTEN THOMAS 32 F ROGERS AR 2:53:14.1 13:14
445 106/122 F3034 10346 JENNIFER MCDERMOTT 30 F WICHITA KS 2:53:15.3 13:14
446 93/105 F3539 10309 JENNIFER LESLIE 38 F WICHITA KS 2:53:22.9 13:15
447 26/32 F5054 10430 SUSAN PFEIFER 52 F WICHITA KS 2:53:36.9 13:16
448 71/81 F2529 10502 ASHLEY SHOWALTER 28 F LYONS KS 2:54:10.5 13:18
449 58/66 F4044 10440 ROBIN PRILL 40 F TOPEKA KS 2:54:43.1 13:21
450 27/32 F5054 10511 NANCY SIMS-WEST 54 F PAOLA KS 2:54:44.2 13:21

SEE JANE RUN

WICHITA, KANSAS

SEPTEMBER 14, 2013

HALF MARATHON RESULTS

Place Div/Tot Divage Bib Name Age Sex City State Time Pace
451 72/81 F2529 10338 JOCELYN MATTOON 28 F MANHATTAN KS 2:55:18.5 13:23
452 10/11 F0119 10592 CARLIE VOLM-BUSH 13 F DERBY KS 2:55:33.3 13:25
453 107/122 F3034 10653 ELECIA VOLM 31 F 2:55:33.5 13:25
454 31/34 F2024 10536 TINA STERNEMANN 24 F PARK CITY KS 2:55:44.4 13:25
455 94/105 F3539 10660 SHAWNA LAMB 36 F PONCA CITY OK 2:55:54.0 13:26
456 108/122 F3034 10598 AMY WAGGONER 32 F PONCA CITY OK 2:55:54.5 13:26
457 59/66 F4044 10668 TINA GROVES 44 F WAKEFIELD KS 2:56:08.9 13:27
458 109/122 F3034 10654 AMBER RENFRO 32 F SALINA KS 2:56:32.4 13:29
459 36/44 F4549 10255 CHRISTINA HUMPHREY 47 F SALINA KS 2:56:32.9 13:29
460 60/66 F4044 10578 SUSAN TYRRELL 43 F LAWTON OK 2:57:40.9 13:34
461 95/105 F3539 10523 KRISTY SPIEGEL 36 F SHAWNEE KS 2:57:57.8 13:36
462 96/105 F3539 10407 ANDREA ODENDAHL 39 F BENTLEY KS 2:58:10.8 13:37
463 73/81 F2529 10161 TEARA FLAGG 27 F MANHATTAN KS 2:58:21.9 13:37
464 74/81 F2529 10614 ARIEL WHITE 26 F WICHITA KS 2:58:43.9 13:39
465 28/32 F5054 10179 CHELLE GAEDE 52 F NEWTON KS 2:59:12.4 13:41
466 29/32 F5054 10581 DENISE UNRUH 50 F GALVA KS 2:59:27.9 13:42
467 30/32 F5054 10447 DEBBIE RATZLOFF 54 F LEHIGH KS 2:59:28.4 13:43
468 75/81 F2529 10153 CARRIE FAWCETT 29 F WICHITA KS 2:59:47.8 13:44
469 76/81 F2529 10443 AMANDA PURCELL 26 F WICHITA KS 3:02:33.6 13:57
470 77/81 F2529 10200 ASHLEY GREER 26 F ELDORADO KS 3:02:48.6 13:58
471 11/12 F5559 10419 CONNIE PARMELY 55 F WICHITA KS 3:02:53.2 13:58
472 61/66 F4044 10537 VANESSA STEWARD 40 F WICHITA KS 3:02:54.5 13:58
473 110/122 F3034 10688 LEA NEWMAN 34 F ARKANSAS CITY KS 3:03:01.6 13:59
474 97/105 F3539 10533 KOREEN STEFANIDIS 38 F LINCOLN NE 3:06:48.5 14:16
475 98/105 F3539 10107 KARA CLUFF 35 F ANDOVER KS 3:06:49.4 14:16
476 111/122 F3034 10683 RACHEL WHEELER 31 F NEOSHO MO 3:06:58.1 14:17
477 62/66 F4044 10619 JANNELL WILLIAMS 43 F WICHITA KS 3:08:06.2 14:22
478 1/4 F6569 10227 RENEE HAWKINS 69 F AUGUSTA KS 3:08:30.9 14:24
479 99/105 F3539 10097 NIKKI CHIPPEAUX 35 F MANHATTAN KS 3:08:46.9 14:25
480 31/32 F5054 10315 JAMIE LOMBARDI 52 F ROSELLE IL 3:09:04.6 14:26
481 100/105 F3539 10165 EMILY FOLEY 35 F CLEARWATER KS 3:09:41.2 14:29
482 112/122 F3034 10178 GRETA FUNK 32 F VALLEY FALLS KS 3:10:26.6 14:33
483 113/122 F3034 10029 SARAH BAKER 30 F GODDARD KS 3:11:13.1 14:36
484 32/34 F2024 10509 BRIANN SIMS 23 F WICHITA KS 3:11:45.7 14:39
485 114/122 F3034 10622 SHEENA WILSON 31 F WICHITA KS 3:11:50.5 14:39
486 1/1 F7098 10531 MARCIA STEELE 72 F WICHITA KS 3:13:40.8 14:48
487 63/66 F4044 10452 DUSTY RICE 40 F KANSAS CITY MO 3:13:44.3 14:48
488 101/105 F3539 10467 JEN ROSS 37 F ARKANSAS CITY KS 3:13:44.5 14:48
489 78/81 F2529 10100 JULIE CLAASSEN 26 F EL DORADO KS 3:15:31.5 14:56
490 115/122 F3034 10128 KATHRYNE DARCANGELO 31 F ANDOVER KS 3:16:00.4 14:58
491 37/44 F4549 10631 KIM YOUNG 49 F PONCA CITY OK 3:16:02.7 14:58
492 2/4 F6569 10066 JILL BRAKE 68 F BELTON MO 3:16:05.5 14:59
493 79/81 F2529 10691 MARIA SHIELDS 28 F WICHITA KS 3:16:33.3 15:01
494 80/81 F2529 10439 REBEKAH PRICHARD 29 F EL DORADO KS 3:16:51.0 15:02
495 64/66 F4044 10326 TRICIA MARKER 41 F WICHITA KS 3:16:57.1 15:03
496 116/122 F3034 10096 JENNIFER CHENG 31 F WICHITA KS 3:17:40.4 15:06
497 38/44 F4549 10318 JODIE LOUX 47 F WICHITA KS 3:17:44.9 15:06
498 117/122 F3034 10435 ERRICA PHOMMARATH 34 F WICHITA KS 3:17:45.3 15:06
499 39/44 F4549 10102 RENEE CLARK 45 F WICHITA KS 3:17:45.5 15:06
500 102/105 F3539 10261 KENYA JACKSON 36 F WICHITA KS 3:18:56.0 15:12

SEE JANE RUN

WICHITA, KANSAS

SEPTEMBER 14, 2013

HALF MARATHON RESULTS

Place Div/Tot Divage Bib Name Age Sex City State Time Pace
501 33/34 F2024 10220 ELLEN HARRIS 24 F GARDNER KS 3:19:09.2 15:13
502 118/122 F3034 10185 TERE GATHRIGHT 34 F MERRIAM KS 3:21:13.3 15:22
503 40/44 F4549 10378 ALISA MUELLER 46 F OVERLAND PARK KS 3:21:14.1 15:22
504 41/44 F4549 10203 HEATHER GRIFFIN 46 F WICHITA KS 3:23:18.6 15:32
505 42/44 F4549 10606 WENDY WAYMAN-WEIR 46 F WICHITA KS 3:23:20.6 15:32
506 65/66 F4044 10198 RACHEL GRANT 40 F WARRENSBURG MO 3:26:34.7 15:47
507 43/44 F4549 10538 RAMA STRATTON 48 F WICHITA KS 3:26:46.5 15:48
508 44/44 F4549 10312 RENA LINDLEY 49 F GARDEN PLAIN KS 3:26:46.8 15:48
509 3/4 F6569 10535 ANN STEINER 65 F YUCAIPA CA 3:27:06.4 15:49
510 10675 UNKNOWN RUNNER F 3:27:10.6 15:49
511 103/105 F3539 10323 SUMMER MAGYAR 36 F WICHITA KS 3:29:13.2 15:59
512 12/12 F5559 10120 DONNA COYKENDALL 57 F KINGMAN KS 3:29:33.9 16:00
513 66/66 F4044 10558 PENNY TERWELP 44 F KANSAS CITY MO 3:30:25.9 16:04
514 11/11 F0119 10351 BRADIE MCGUIRE 17 F OVERLAND PARK KS 3:30:26.0 16:04
515 119/122 F3034 10444 KATIE PUSCH 33 F WICHITA KS 3:32:25.8 16:13
516 81/81 F2529 10127 ALINA DANH 27 F WICHITA KS 3:32:41.8 16:15
517 32/32 F5054 10181 MIRIAM GALAVIZ 53 F NORTH RICHLAND HIL TX 3:34:08.7 16:21
518 3/3 F6064 10483 LINDA SCHMECKPEPER 60 F MANKATO MN 3:35:14.7 16:26
519 4/4 F6569 10030 BONNIE BALISTERI 66 F SANDY UT 3:35:15.1 16:26
520 120/122 F3034 10222 MONIQUE HARRIS 30 F WICHITA KS 3:35:36.3 16:28
521 121/122 F3034 10698 TASHA TORREZ 31 F WELLINGTON KS 3:35:36.4 16:28
522 122/122 F3034 10229 TERRYLL HAYNER 31 F WICHITA KS 3:48:13.5 17:26
523 104/105 F3539 10366 MICHAELYN MIRELES 38 F VALLEY CENTER KS 3:55:04.9 17:57
524 105/105 F3539 10441 BETHANY PRINGLE-JOHNSON 36 F WICHITA KS 3:55:05.5 17:57
525 34/34 F2024 10325 TAYLER MARKER 20 F HUTCHINSON KS 4:05:02.7 18:43

 


© Copyright 2017 Oz Endurance • Privacy Policy • Website by cb{d}